createdAt,value
2018-09-30T00:02:20.654Z,45.45
2018-09-30T00:04:52.190Z,44.30
2018-09-30T00:07:24.191Z,45.08
2018-09-30T00:09:55.746Z,44.05
2018-09-30T00:12:27.284Z,44.54
2018-09-30T00:14:58.764Z,45.27
2018-09-30T00:17:30.197Z,45.14
2018-09-30T00:20:01.714Z,46.35
2018-09-30T00:22:33.305Z,44.93
2018-09-30T00:25:09.890Z,44.91
2018-09-30T00:27:41.515Z,44.62
2018-09-30T00:30:13.187Z,45.52
2018-09-30T00:32:44.647Z,44.33
2018-09-30T00:35:16.205Z,46.51
2018-09-30T00:37:47.720Z,45.61
2018-09-30T00:40:19.194Z,45.26
2018-09-30T00:42:50.688Z,45.41
2018-09-30T00:45:22.187Z,45.59
2018-09-30T00:47:53.646Z,45.74
2018-09-30T00:50:25.255Z,45.62
2018-09-30T00:52:56.704Z,45.15
2018-09-30T00:55:28.417Z,45.23
2018-09-30T00:57:59.749Z,45.75
2018-09-30T01:00:30.791Z,44.93
2018-09-30T01:03:02.017Z,46.33
2018-09-30T01:05:33.641Z,44.34
2018-09-30T01:08:04.951Z,45.70
2018-09-30T01:10:35.578Z,46.21
2018-09-30T01:13:06.897Z,45.91
2018-09-30T01:15:38.389Z,44.72
2018-09-30T01:18:09.726Z,45.77
2018-09-30T01:20:41.361Z,45.10
2018-09-30T01:23:12.772Z,46.63
2018-09-30T01:25:44.203Z,45.12
2018-09-30T01:28:15.673Z,44.97
2018-09-30T01:30:47.190Z,45.19
2018-09-30T01:33:18.657Z,45.39
2018-09-30T01:35:50.223Z,45.74
2018-09-30T01:38:21.731Z,45.38
2018-09-30T01:40:52.748Z,45.93
2018-09-30T01:43:23.743Z,45.49
2018-09-30T01:45:55.308Z,44.99
2018-09-30T01:48:26.787Z,45.33
2018-09-30T01:50:58.372Z,45.93
2018-09-30T01:53:29.830Z,46.03
2018-09-30T01:56:01.404Z,45.70
2018-09-30T01:58:32.717Z,46.50
2018-09-30T02:01:04.312Z,46.35
2018-09-30T02:03:35.706Z,45.32
2018-09-30T02:06:07.199Z,45.19
2018-09-30T02:08:38.655Z,45.71
2018-09-30T02:11:10.119Z,46.44
2018-09-30T02:13:41.667Z,46.20
2018-09-30T02:16:13.203Z,46.07
2018-09-30T02:18:44.662Z,46.78
2018-09-30T02:21:15.916Z,46.24
2018-09-30T02:23:47.535Z,45.98
2018-09-30T02:26:19.298Z,46.00
2018-09-30T02:28:50.790Z,45.49
2018-09-30T02:31:21.858Z,44.84
2018-09-30T02:33:53.246Z,47.15
2018-09-30T02:36:24.474Z,45.45
2018-09-30T02:38:55.799Z,45.50
2018-09-30T02:41:26.820Z,45.41
2018-09-30T02:43:58.055Z,45.66
2018-09-30T02:46:28.687Z,45.23
2018-09-30T02:49:00.198Z,45.58
2018-09-30T02:51:31.724Z,45.48
2018-09-30T02:54:03.246Z,45.38
2018-09-30T02:56:34.732Z,45.33
2018-09-30T02:59:06.196Z,46.69
2018-09-30T03:01:37.721Z,46.50
2018-09-30T03:04:08.742Z,45.63
2018-09-30T03:06:44.797Z,46.64
2018-09-30T03:09:18.640Z,45.71
2018-09-30T03:11:50.202Z,46.02
2018-09-30T03:14:21.394Z,46.00
2018-09-30T03:16:52.758Z,44.99
2018-09-30T03:19:23.838Z,46.03
2018-09-30T03:21:55.641Z,45.81
2018-09-30T03:24:27.196Z,46.14
2018-09-30T03:26:58.410Z,46.62
2018-09-30T03:29:30.195Z,45.74
2018-09-30T03:32:01.736Z,46.14
2018-09-30T03:34:33.411Z,45.89
2018-09-30T03:37:04.706Z,45.06
2018-09-30T03:39:36.071Z,45.73
2018-09-30T03:42:07.692Z,45.57
2018-09-30T03:44:39.200Z,45.37
2018-09-30T03:47:10.617Z,46.34
2018-09-30T03:49:41.594Z,46.94
2018-09-30T03:52:12.655Z,46.29
2018-09-30T03:54:43.700Z,45.93
2018-09-30T03:57:14.741Z,45.89
2018-09-30T03:59:45.889Z,46.05
2018-09-30T04:02:17.016Z,46.12
2018-09-30T04:04:48.726Z,46.42
2018-09-30T04:07:19.773Z,45.71
2018-09-30T04:09:50.774Z,46.38
2018-09-30T04:12:22.375Z,46.21
2018-09-30T04:14:53.856Z,46.79
2018-09-30T04:17:25.463Z,46.20
2018-09-30T04:19:56.769Z,46.27
2018-09-30T04:22:28.275Z,45.19
2018-09-30T04:24:59.749Z,46.28
2018-09-30T04:27:31.438Z,45.33
2018-09-30T04:30:02.780Z,46.31
2018-09-30T04:32:34.222Z,46.50
2018-09-30T04:35:05.705Z,46.34
2018-09-30T04:37:37.197Z,45.71
2018-09-30T04:40:09.059Z,46.84
2018-09-30T04:42:40.727Z,46.60
2018-09-30T04:45:12.291Z,46.37
2018-09-30T04:47:43.775Z,45.45
2018-09-30T04:50:15.335Z,45.84
2018-09-30T04:52:46.815Z,46.43
2018-09-30T04:55:18.354Z,45.94
2018-09-30T04:57:49.803Z,45.35
2018-09-30T05:00:21.259Z,45.06
2018-09-30T05:02:52.723Z,42.76
2018-09-30T05:05:24.266Z,46.09
2018-09-30T05:07:55.792Z,45.45
2018-09-30T05:10:26.947Z,44.51
2018-09-30T05:12:58.547Z,43.41
2018-09-30T05:15:30.194Z,43.36
2018-09-30T05:18:01.719Z,42.50
2018-09-30T05:20:33.653Z,42.25
2018-09-30T05:23:05.196Z,41.62
2018-09-30T05:25:36.668Z,41.51
2018-09-30T05:28:08.290Z,41.45
2018-09-30T05:30:39.723Z,41.23
2018-09-30T05:33:11.300Z,41.48
2018-09-30T05:35:42.883Z,41.38
2018-09-30T05:38:14.438Z,41.62
2018-09-30T05:40:45.756Z,42.00
2018-09-30T05:43:17.293Z,40.94
2018-09-30T05:45:48.814Z,40.49
2018-09-30T05:48:20.405Z,40.81
2018-09-30T05:50:51.801Z,41.32
2018-09-30T05:53:23.307Z,40.47
2018-09-30T05:55:54.780Z,40.90
2018-09-30T05:58:26.521Z,40.30
2018-09-30T06:00:57.887Z,40.49
2018-09-30T06:03:29.486Z,40.90
2018-09-30T06:06:01.054Z,40.04
2018-09-30T06:08:32.723Z,39.73
2018-09-30T06:11:04.186Z,40.97
2018-09-30T06:13:35.666Z,39.92
2018-09-30T06:16:07.404Z,39.87
2018-09-30T06:18:38.731Z,40.01
2018-09-30T06:21:09.787Z,39.66
2018-09-30T06:23:40.839Z,39.52
2018-09-30T06:26:18.996Z,40.27
2018-09-30T06:28:49.571Z,40.91
2018-09-30T06:31:20.971Z,40.75
2018-09-30T06:33:52.244Z,40.58
2018-09-30T06:36:23.670Z,41.23
2018-09-30T06:38:55.195Z,41.61
2018-09-30T06:41:26.669Z,43.96
2018-09-30T06:43:57.899Z,43.21
2018-09-30T06:46:29.632Z,42.60
2018-09-30T06:49:01.203Z,42.52
2018-09-30T06:51:32.687Z,42.68
2018-09-30T06:54:04.203Z,43.81
2018-09-30T06:56:35.687Z,43.19
2018-09-30T06:59:07.281Z,44.04
2018-09-30T07:01:38.695Z,43.49
2018-09-30T07:04:10.334Z,44.56
2018-09-30T07:06:41.728Z,43.15
2018-09-30T07:09:13.212Z,44.55
2018-09-30T07:11:44.753Z,44.78
2018-09-30T07:14:16.397Z,44.77
2018-09-30T07:16:48.021Z,43.96
2018-09-30T07:19:19.504Z,44.24
2018-09-30T07:21:50.897Z,44.64
2018-09-30T07:24:25.190Z,45.13
2018-09-30T07:26:56.735Z,44.67
2018-09-30T07:29:28.597Z,44.89
2018-09-30T07:31:59.573Z,45.11
2018-09-30T07:34:30.963Z,45.30
2018-09-30T07:37:01.662Z,44.63
2018-09-30T07:39:33.265Z,45.40
2018-09-30T07:42:04.719Z,44.75
2018-09-30T07:44:36.197Z,44.26
2018-09-30T07:47:07.692Z,45.71
2018-09-30T07:49:39.215Z,45.05
2018-09-30T07:52:11.215Z,45.20
2018-09-30T07:54:42.843Z,45.30
2018-09-30T07:57:14.006Z,45.72
2018-09-30T07:59:45.625Z,45.85
2018-09-30T08:02:16.969Z,45.44
2018-09-30T08:04:48.653Z,45.22
2018-09-30T08:07:20.215Z,45.11
2018-09-30T08:09:51.700Z,45.72
2018-09-30T08:12:23.038Z,44.87
2018-09-30T08:14:53.689Z,45.88
2018-09-30T08:17:25.477Z,45.13
2018-09-30T08:19:56.987Z,46.17
2018-09-30T08:22:28.547Z,45.05
2018-09-30T08:24:59.990Z,45.42
2018-09-30T08:27:31.513Z,45.74
2018-09-30T08:30:03.219Z,45.61
2018-09-30T08:32:34.723Z,45.60
2018-09-30T08:35:10.187Z,46.29
2018-09-30T08:37:47.477Z,46.43
2018-09-30T08:40:24.206Z,45.99
2018-09-30T08:42:55.648Z,46.35
2018-09-30T08:45:26.750Z,46.30
2018-09-30T08:47:58.429Z,45.85
2018-09-30T08:50:29.774Z,45.68
2018-09-30T08:53:00.813Z,46.25
2018-09-30T08:55:32.408Z,46.24
2018-09-30T08:58:03.915Z,45.93
2018-09-30T09:00:35.371Z,45.77
2018-09-30T09:03:06.767Z,45.93
2018-09-30T09:05:37.759Z,46.21
2018-09-30T09:08:09.664Z,46.29
2018-09-30T09:10:41.207Z,46.17
2018-09-30T09:13:12.720Z,45.18
2018-09-30T09:15:44.312Z,45.95
2018-09-30T09:18:16.204Z,45.97
2018-09-30T09:20:47.710Z,45.81
2018-09-30T09:23:19.287Z,46.10
2018-09-30T09:25:50.699Z,46.02
2018-09-30T09:28:23.451Z,46.42
2018-09-30T09:30:54.785Z,46.29
2018-09-30T09:33:25.787Z,46.12
2018-09-30T09:35:57.218Z,46.24
2018-09-30T09:38:28.817Z,45.87
2018-09-30T09:41:00.013Z,46.15
2018-09-30T09:43:31.509Z,46.06
2018-09-30T09:46:02.912Z,45.59
2018-09-30T09:48:34.643Z,46.18
2018-09-30T09:51:06.298Z,46.22
2018-09-30T09:53:37.813Z,45.38
2018-09-30T09:56:09.307Z,45.59
2018-09-30T09:58:40.742Z,45.73
2018-09-30T10:01:12.617Z,45.58
2018-09-30T10:03:43.975Z,45.08
2018-09-30T10:06:14.643Z,45.34
2018-09-30T10:08:46.234Z,44.92
2018-09-30T10:11:17.796Z,45.77
2018-09-30T10:13:49.318Z,45.84
2018-09-30T10:16:21.880Z,45.91
2018-09-30T10:18:53.342Z,45.41
2018-09-30T10:21:24.789Z,44.73
2018-09-30T10:23:56.903Z,44.36
2018-09-30T10:26:28.714Z,44.55
2018-09-30T10:29:00.375Z,43.69
2018-09-30T10:31:31.763Z,42.63
2018-09-30T10:34:03.420Z,44.88
2018-09-30T10:36:34.889Z,44.63
2018-09-30T10:39:08.861Z,42.28
2018-09-30T10:41:40.799Z,43.99
2018-09-30T10:44:12.315Z,43.80
2018-09-30T10:46:45.530Z,43.33
2018-09-30T10:49:18.841Z,42.25
2018-09-30T10:51:50.535Z,44.21
2018-09-30T10:54:22.387Z,42.65
2018-09-30T10:56:54.083Z,42.25
2018-09-30T10:59:25.807Z,44.09
2018-09-30T11:01:57.403Z,44.39
2018-09-30T11:04:28.749Z,42.82
2018-09-30T11:07:00.328Z,43.85
2018-09-30T11:09:31.505Z,45.20
2018-09-30T11:12:03.569Z,44.54
2018-09-30T11:14:35.519Z,44.45
2018-09-30T11:17:07.014Z,45.55
2018-09-30T11:19:38.726Z,44.79
2018-09-30T11:22:10.384Z,45.28
2018-09-30T11:24:41.873Z,45.44
2018-09-30T11:27:13.525Z,44.78
2018-09-30T11:29:44.981Z,44.10
2018-09-30T11:32:15.597Z,42.27
2018-09-30T11:34:47.197Z,41.86
2018-09-30T11:37:18.703Z,41.14
2018-09-30T11:39:50.505Z,44.30
2018-09-30T11:42:22.195Z,43.48
2018-09-30T11:44:53.661Z,42.39
2018-09-30T11:47:25.204Z,41.15
2018-09-30T11:49:56.754Z,40.74
2018-09-30T11:52:28.770Z,43.03
2018-09-30T11:55:00.320Z,43.62
2018-09-30T11:57:32.319Z,43.83
2018-09-30T12:00:03.722Z,43.54
2018-09-30T12:02:35.307Z,41.90
2018-09-30T12:05:07.421Z,43.19
2018-09-30T12:07:39.555Z,44.46
2018-09-30T12:10:10.869Z,44.31
2018-09-30T12:12:42.351Z,43.52
2018-09-30T12:15:13.903Z,42.18
2018-09-30T12:17:45.511Z,42.88
2018-09-30T12:20:17.206Z,42.83
2018-09-30T12:22:48.722Z,43.21
2018-09-30T12:25:19.885Z,42.96
2018-09-30T12:27:51.674Z,43.18
2018-09-30T12:30:23.237Z,42.89
2018-09-30T12:32:54.650Z,42.71
2018-09-30T12:35:26.219Z,43.20
2018-09-30T12:37:57.709Z,43.17
2018-09-30T12:40:29.201Z,43.10
2018-09-30T12:43:00.788Z,42.90
2018-09-30T12:45:32.456Z,42.83
2018-09-30T12:48:03.797Z,43.40
2018-09-30T12:50:35.396Z,43.43
2018-09-30T12:53:07.419Z,41.09
2018-09-30T12:55:38.839Z,43.15
2018-09-30T12:58:10.541Z,41.29
2018-09-30T13:00:41.868Z,42.34
2018-09-30T13:03:13.319Z,41.36
2018-09-30T13:05:44.872Z,42.43
2018-09-30T13:08:15.890Z,43.56
2018-09-30T13:10:47.180Z,44.05
2018-09-30T13:13:18.670Z,42.31
2018-09-30T13:15:49.902Z,43.05
2018-09-30T13:20:02.923Z,41.67
2018-09-30T13:22:33.978Z,43.02
2018-09-30T13:25:05.338Z,44.33
2018-09-30T13:27:36.729Z,44.03
2018-09-30T13:30:07.791Z,43.57
2018-09-30T13:32:39.190Z,43.09
2018-09-30T13:35:10.729Z,40.19
2018-09-30T13:37:42.216Z,41.49
2018-09-30T13:40:13.887Z,41.30
2018-09-30T13:42:45.422Z,43.58
2018-09-30T13:45:17.207Z,42.84
2018-09-30T13:47:48.726Z,43.74
2018-09-30T13:50:20.197Z,42.35
2018-09-30T13:52:51.756Z,44.02
2018-09-30T13:55:23.515Z,41.79
2018-09-30T13:57:54.781Z,40.14
2018-09-30T14:00:26.420Z,38.93
2018-09-30T14:02:57.926Z,37.81
2018-09-30T14:05:29.815Z,40.47
2018-09-30T14:08:01.225Z,39.72
2018-09-30T14:10:32.758Z,43.99
2018-09-30T14:13:04.318Z,43.24
2018-09-30T14:15:35.791Z,41.13
2018-09-30T14:18:07.312Z,41.73
2018-09-30T14:20:38.808Z,41.67
2018-09-30T14:23:10.503Z,41.83
2018-09-30T14:25:42.872Z,41.68
2018-09-30T14:28:14.443Z,41.05
2018-09-30T14:30:45.895Z,43.10
2018-09-30T14:33:17.400Z,40.97
2018-09-30T14:35:48.748Z,41.06
2018-09-30T14:40:58.867Z,42.16
2018-09-30T14:43:29.838Z,42.60
2018-09-30T14:46:00.813Z,43.96
2018-09-30T14:48:32.515Z,41.85
2018-09-30T14:51:03.920Z,43.77
2018-09-30T14:53:34.543Z,43.33
2018-09-30T14:56:05.956Z,44.10
2018-09-30T14:58:36.574Z,44.03
2018-09-30T15:01:08.312Z,44.32
2018-09-30T15:03:39.810Z,44.23
2018-09-30T15:06:11.797Z,43.61
2018-09-30T15:08:43.207Z,42.82
2018-09-30T15:11:14.657Z,44.16
2018-09-30T15:13:46.213Z,43.52
2018-09-30T15:16:17.634Z,43.61
2018-09-30T15:18:49.203Z,43.25
2018-09-30T15:21:20.775Z,42.78
2018-09-30T15:23:52.315Z,40.97
2018-09-30T15:26:23.723Z,42.66
2018-09-30T15:28:55.328Z,42.10
2018-09-30T15:31:26.796Z,42.44
2018-09-30T15:33:58.199Z,41.50
2018-09-30T15:36:29.711Z,42.46
2018-09-30T15:39:01.212Z,41.35
2018-09-30T15:41:32.880Z,40.63
2018-09-30T15:44:05.544Z,42.11
2018-09-30T15:46:37.362Z,41.16
2018-09-30T15:49:09.291Z,41.36
2018-09-30T15:51:40.719Z,40.32
2018-09-30T15:54:12.407Z,41.62
2018-09-30T15:56:43.768Z,40.67
2018-09-30T15:59:15.297Z,40.96
2018-09-30T16:01:46.704Z,41.10
2018-09-30T16:04:18.315Z,40.65
2018-09-30T16:06:49.713Z,41.61
2018-09-30T16:09:21.905Z,41.44
2018-09-30T16:11:53.747Z,39.71
2018-09-30T16:14:25.581Z,41.59
2018-09-30T16:16:56.985Z,40.29
2018-09-30T16:19:28.578Z,42.25
2018-09-30T16:21:59.856Z,40.80
2018-09-30T16:24:31.388Z,42.33
2018-09-30T16:27:02.835Z,40.89
2018-09-30T16:29:34.364Z,40.87
2018-09-30T16:32:05.889Z,40.73
2018-09-30T16:34:37.517Z,39.15
2018-09-30T16:37:08.863Z,41.01
2018-09-30T16:39:40.539Z,40.79
2018-09-30T16:42:12.291Z,40.96
2018-09-30T16:44:43.762Z,41.97
2018-09-30T16:47:15.381Z,41.68
2018-09-30T16:49:46.989Z,42.00
2018-09-30T16:52:18.517Z,42.08
2018-09-30T16:54:50.429Z,41.95
2018-09-30T16:57:21.847Z,40.94
2018-09-30T16:59:53.383Z,41.44
2018-09-30T17:02:24.703Z,42.13
2018-09-30T17:04:56.409Z,41.87
2018-09-30T17:07:27.843Z,41.30
2018-09-30T17:09:58.770Z,41.72
2018-09-30T17:12:29.790Z,42.26
2018-09-30T17:15:01.392Z,42.18
2018-09-30T17:17:32.720Z,41.00
2018-09-30T17:20:04.496Z,41.51
2018-09-30T17:22:35.889Z,41.23
2018-09-30T17:25:07.603Z,40.89
2018-09-30T17:27:39.780Z,41.88
2018-09-30T17:30:11.298Z,42.02
2018-09-30T17:32:42.752Z,42.53
2018-09-30T17:35:14.351Z,41.19
2018-09-30T17:37:45.780Z,40.73
2018-09-30T17:40:17.312Z,41.21
2018-09-30T17:42:48.665Z,41.49
2018-09-30T17:45:19.922Z,42.24
2018-09-30T17:47:50.541Z,41.36
2018-09-30T17:50:22.200Z,41.38
2018-09-30T17:52:53.739Z,42.39
2018-09-30T17:55:25.287Z,42.32
2018-09-30T17:57:56.707Z,41.92
2018-09-30T18:00:28.212Z,41.99
2018-09-30T18:02:59.704Z,42.20
2018-09-30T18:05:31.363Z,42.45
2018-09-30T18:08:02.898Z,41.54
2018-09-30T18:10:34.408Z,42.35
2018-09-30T18:13:05.890Z,42.29
2018-09-30T18:15:38.891Z,41.46
2018-09-30T18:18:11.950Z,41.96
2018-09-30T18:20:43.979Z,41.88
2018-09-30T18:23:16.761Z,42.05
2018-09-30T18:25:48.372Z,41.83
2018-09-30T18:28:23.396Z,42.75
2018-09-30T18:30:56.440Z,41.65
2018-09-30T18:33:29.052Z,42.48
2018-09-30T18:36:01.366Z,42.26
2018-09-30T18:38:34.335Z,43.24
2018-09-30T18:41:06.215Z,42.64
2018-09-30T18:43:37.907Z,42.66
2018-09-30T18:46:12.022Z,43.20
2018-09-30T18:48:44.691Z,42.12
2018-09-30T18:51:17.189Z,43.55
2018-09-30T18:53:49.873Z,43.15
2018-09-30T18:56:22.342Z,40.49
2018-09-30T18:58:54.648Z,40.41
2018-09-30T19:01:27.343Z,39.17
2018-09-30T19:03:58.860Z,39.19
2018-09-30T19:06:31.236Z,39.13
2018-09-30T19:09:04.216Z,39.15
2018-09-30T19:11:36.751Z,38.59
2018-09-30T19:14:09.444Z,39.89
2018-09-30T19:16:41.911Z,39.30
2018-09-30T19:19:14.446Z,40.36
2018-09-30T19:21:47.513Z,40.52
2018-09-30T19:24:19.734Z,40.02
2018-09-30T19:26:52.226Z,40.13
2018-09-30T19:29:24.928Z,39.71
2018-09-30T19:31:56.720Z,39.74
2018-09-30T19:34:28.384Z,39.53
2018-09-30T19:37:01.218Z,42.43
2018-09-30T19:39:33.860Z,43.26
2018-09-30T19:42:05.851Z,42.05
2018-09-30T19:44:38.688Z,41.02
2018-09-30T19:49:31.221Z,41.74
2018-09-30T19:52:03.606Z,42.69
2018-09-30T19:54:35.715Z,42.49
2018-09-30T19:57:09.323Z,43.56
2018-09-30T19:59:41.708Z,42.75
2018-09-30T20:02:14.052Z,43.02
2018-09-30T20:04:46.355Z,43.44
2018-09-30T20:07:19.231Z,43.40
2018-09-30T20:09:50.583Z,42.52
2018-09-30T20:12:21.820Z,43.69
2018-09-30T20:14:53.337Z,43.98
2018-09-30T20:17:24.752Z,43.77
2018-09-30T20:19:56.592Z,44.23
2018-09-30T20:22:29.308Z,43.60
2018-09-30T20:25:00.937Z,43.88
2018-09-30T20:27:32.661Z,42.97
2018-09-30T20:30:04.311Z,43.20
2018-09-30T20:32:35.841Z,43.64
2018-09-30T20:35:06.809Z,44.27
2018-09-30T20:37:38.743Z,43.33
2018-09-30T20:40:10.644Z,44.01
2018-09-30T20:42:42.205Z,44.09
2018-09-30T20:45:13.725Z,45.02
2018-09-30T20:47:45.188Z,43.87
2018-09-30T20:50:16.699Z,43.48
2018-09-30T20:52:48.190Z,44.41
2018-09-30T20:55:19.768Z,43.25
2018-09-30T20:57:51.359Z,44.41
2018-09-30T21:00:22.796Z,44.14
2018-09-30T21:02:54.398Z,44.39
2018-09-30T21:05:46.391Z,44.66
2018-09-30T21:08:17.739Z,44.19
2018-09-30T21:10:49.304Z,44.69
2018-09-30T21:13:20.773Z,44.37
2018-09-30T21:15:52.021Z,44.96
2018-09-30T21:18:23.344Z,44.16
2018-09-30T21:20:54.740Z,44.91
2018-09-30T21:23:26.296Z,43.62
2018-09-30T21:25:58.443Z,45.54
2018-09-30T21:28:29.877Z,44.95
2018-09-30T21:31:01.391Z,44.81
2018-09-30T21:33:32.771Z,44.32
2018-09-30T21:36:03.826Z,44.44
2018-09-30T21:38:35.192Z,44.60
2018-09-30T21:41:06.666Z,44.30
2018-09-30T21:43:38.297Z,45.34
2018-09-30T21:46:09.780Z,44.81
2018-09-30T21:48:41.400Z,45.35
2018-09-30T21:51:12.694Z,44.30
2018-09-30T21:53:44.066Z,45.14
2018-09-30T21:56:15.695Z,45.17
2018-09-30T21:58:47.267Z,44.50
2018-09-30T22:01:18.814Z,45.39
2018-09-30T22:03:50.432Z,45.59
2018-09-30T22:06:21.783Z,45.68
2018-09-30T22:08:53.200Z,44.65
2018-09-30T22:11:24.729Z,44.84
2018-09-30T22:13:56.210Z,44.11
2018-09-30T22:16:27.654Z,44.27
2018-09-30T22:18:59.197Z,44.04
2018-09-30T22:21:30.681Z,44.84
2018-09-30T22:24:02.348Z,45.27
2018-09-30T22:26:33.856Z,45.38
2018-09-30T22:29:05.278Z,44.46
2018-09-30T22:31:36.729Z,44.68
2018-09-30T22:34:08.365Z,44.16
2018-09-30T22:36:39.857Z,45.36
2018-09-30T22:39:11.364Z,45.47
2018-09-30T22:41:42.772Z,44.48
2018-09-30T22:44:14.249Z,45.24
2018-09-30T22:46:45.729Z,44.35
2018-09-30T22:49:17.396Z,45.78
2018-09-30T22:51:48.809Z,45.44
2018-09-30T22:54:20.199Z,44.62
2018-09-30T22:56:51.699Z,45.23
2018-09-30T22:59:23.207Z,44.04
2018-09-30T23:01:54.716Z,44.92
2018-09-30T23:04:26.202Z,44.72
2018-09-30T23:06:57.697Z,45.50
2018-09-30T23:09:29.314Z,44.75
2018-09-30T23:12:00.786Z,45.35
2018-09-30T23:14:32.219Z,45.30
2018-09-30T23:17:03.769Z,44.21
2018-09-30T23:19:35.309Z,44.34
2018-09-30T23:22:06.773Z,44.24
2018-09-30T23:24:38.308Z,44.48
2018-09-30T23:27:09.744Z,44.98
2018-09-30T23:29:41.311Z,45.46
2018-09-30T23:32:12.867Z,45.33
2018-09-30T23:34:44.346Z,44.74
2018-09-30T23:37:15.796Z,45.33
2018-09-30T23:39:47.342Z,46.27
2018-09-30T23:42:18.776Z,45.51
2018-09-30T23:44:50.228Z,44.71
2018-09-30T23:47:21.656Z,46.10
2018-09-30T23:49:53.205Z,45.08
2018-09-30T23:52:24.627Z,45.85
2018-09-30T23:54:55.980Z,44.70
2018-09-30T23:57:26.563Z,45.51
2018-09-30T23:59:57.987Z,45.27
